Redmond, Oregon
Current Conditions -  °F | °C
As of 3:56 PM on Saturday 20 Dec 2014 (Local Time) from KRDM Reporting Station
Light Rain Light Rain  
Wind Chill:   Ceiling: 6000
Heat Index:   Visibility: 10mi
Dew Point:   Wind: 16mph
Humidity: 80%   Direction: 180°S
Pressure: 29.76"   Gusts: NA
Location:  44.27°N, 121.17°W
Report Text: KRDM 202356Z 18014KT 10SM -RA OVC060 07/04 A2976 RMK AO2 SLP080 P0001 60002 T00720039 10072 20056 55005
Loading
Personal Weather Stations






























Interactive Weather Map New forecast layout! Learn more

10-Day Weather Forecast

Advertisements
Track Severe Weather on mobile